sensor_id;sensor_type;location;lat;lon;timestamp;P1;durP1;ratioP1;P2;durP2;ratioP2
40459;SDS011;26164;51.138;16.952;2023-03-01T00:01:08;91.35;;;37.90;;
40459;SDS011;26164;51.138;16.952;2023-03-01T00:03:39;89.88;;;37.67;;
40459;SDS011;26164;51.138;16.952;2023-03-01T00:06:06;88.03;;;36.95;;
40459;SDS011;26164;51.138;16.952;2023-03-01T00:08:32;80.40;;;34.30;;
40459;SDS011;26164;51.138;16.952;2023-03-01T00:11:03;92.25;;;37.28;;
40459;SDS011;26164;51.138;16.952;2023-03-01T00:13:34;90.15;;;39.70;;
40459;SDS011;26164;51.138;16.952;2023-03-01T00:16:05;95.63;;;38.58;;
40459;SDS011;26164;51.138;16.952;2023-03-01T00:18:32;99.60;;;42.15;;
40459;SDS011;26164;51.138;16.952;2023-03-01T00:20:58;84.45;;;36.80;;
40459;SDS011;26164;51.138;16.952;2023-03-01T00:23:24;84.43;;;34.78;;
40459;SDS011;26164;51.138;16.952;2023-03-01T00:25:50;85.13;;;36.63;;
40459;SDS011;26164;51.138;16.952;2023-03-01T00:28:17;90.90;;;38.15;;
40459;SDS011;26164;51.138;16.952;2023-03-01T00:30:45;108.90;;;41.65;;
40459;SDS011;26164;51.138;16.952;2023-03-01T00:33:14;91.93;;;38.92;;
40459;SDS011;26164;51.138;16.952;2023-03-01T00:35:40;95.03;;;40.88;;
40459;SDS011;26164;51.138;16.952;2023-03-01T00:38:06;117.57;;;45.05;;
40459;SDS011;26164;51.138;16.952;2023-03-01T00:40:33;120.82;;;47.83;;
40459;SDS011;26164;51.138;16.952;2023-03-01T00:43:00;112.18;;;45.30;;
40459;SDS011;26164;51.138;16.952;2023-03-01T00:45:27;103.80;;;42.47;;
40459;SDS011;26164;51.138;16.952;2023-03-01T00:47:53;105.85;;;43.80;;
40459;SDS011;26164;51.138;16.952;2023-03-01T00:50:20;107.03;;;45.17;;
40459;SDS011;26164;51.138;16.952;2023-03-01T00:52:46;110.20;;;45.10;;
40459;SDS011;26164;51.138;16.952;2023-03-01T00:55:18;110.38;;;44.22;;
40459;SDS011;26164;51.138;16.952;2023-03-01T00:57:43;103.13;;;43.45;;
40459;SDS011;26164;51.138;16.952;2023-03-01T01:00:10;121.00;;;47.65;;
40459;SDS011;26164;51.138;16.952;2023-03-01T01:02:36;102.35;;;39.72;;
40459;SDS011;26164;51.138;16.952;2023-03-01T01:05:20;91.78;;;38.08;;
40459;SDS011;26164;51.138;16.952;2023-03-01T01:08:01;95.95;;;39.30;;
40459;SDS011;26164;51.138;16.952;2023-03-01T01:10:43;99.35;;;40.05;;
40459;SDS011;26164;51.138;16.952;2023-03-01T01:13:24;93.32;;;39.17;;
40459;SDS011;26164;51.138;16.952;2023-03-01T01:16:05;95.47;;;40.97;;
40459;SDS011;26164;51.138;16.952;2023-03-01T01:18:47;102.00;;;41.95;;
40459;SDS011;26164;51.138;16.952;2023-03-01T01:21:22;95.53;;;40.40;;
40459;SDS011;26164;51.138;16.952;2023-03-01T01:23:50;96.20;;;40.60;;
40459;SDS011;26164;51.138;16.952;2023-03-01T01:26:54;94.97;;;38.50;;
40459;SDS011;26164;51.138;16.952;2023-03-01T01:29:37;92.43;;;38.90;;
40459;SDS011;26164;51.138;16.952;2023-03-01T01:32:34;93.93;;;38.92;;
40459;SDS011;26164;51.138;16.952;2023-03-01T01:35:11;96.63;;;39.33;;
40459;SDS011;26164;51.138;16.952;2023-03-01T01:37:36;99.57;;;42.58;;
40459;SDS011;26164;51.138;16.952;2023-03-01T01:40:17;99.00;;;42.47;;
40459;SDS011;26164;51.138;16.952;2023-03-01T01:42:58;105.63;;;41.58;;
40459;SDS011;26164;51.138;16.952;2023-03-01T01:45:38;106.15;;;43.67;;
40459;SDS011;26164;51.138;16.952;2023-03-01T01:48:20;87.80;;;39.38;;
40459;SDS011;26164;51.138;16.952;2023-03-01T01:50:55;94.78;;;39.72;;
40459;SDS011;26164;51.138;16.952;2023-03-01T01:53:26;97.65;;;41.85;;
40459;SDS011;26164;51.138;16.952;2023-03-01T01:56:07;106.57;;;43.00;;
40459;SDS011;26164;51.138;16.952;2023-03-01T01:58:37;107.10;;;42.50;;
40459;SDS011;26164;51.138;16.952;2023-03-01T02:01:04;105.60;;;42.20;;
40459;SDS011;26164;51.138;16.952;2023-03-01T02:03:31;102.05;;;43.22;;
40459;SDS011;26164;51.138;16.952;2023-03-01T02:06:03;108.28;;;44.25;;
40459;SDS011;26164;51.138;16.952;2023-03-01T02:08:37;111.18;;;46.10;;
40459;SDS011;26164;51.138;16.952;2023-03-01T02:11:06;110.93;;;44.83;;
40459;SDS011;26164;51.138;16.952;2023-03-01T02:13:33;123.95;;;48.05;;
40459;SDS011;26164;51.138;16.952;2023-03-01T02:16:04;114.00;;;45.97;;
40459;SDS011;26164;51.138;16.952;2023-03-01T02:18:33;115.38;;;45.08;;
40459;SDS011;26164;51.138;16.952;2023-03-01T02:23:31;88.95;;;37.65;;
40459;SDS011;26164;51.138;16.952;2023-03-01T02:26:01;91.68;;;36.55;;
40459;SDS011;26164;51.138;16.952;2023-03-01T02:31:00;87.97;;;36.10;;
40459;SDS011;26164;51.138;16.952;2023-03-01T02:33:47;84.53;;;35.40;;
40459;SDS011;26164;51.138;16.952;2023-03-01T02:36:15;102.93;;;41.25;;
40459;SDS011;26164;51.138;16.952;2023-03-01T02:38:46;101.13;;;42.78;;
40459;SDS011;26164;51.138;16.952;2023-03-01T02:41:15;105.88;;;42.25;;
40459;SDS011;26164;51.138;16.952;2023-03-01T02:43:43;93.22;;;40.03;;
40459;SDS011;26164;51.138;16.952;2023-03-01T02:46:17;100.00;;;39.55;;
40459;SDS011;26164;51.138;16.952;2023-03-01T02:48:47;96.05;;;39.63;;
40459;SDS011;26164;51.138;16.952;2023-03-01T02:56:50;98.38;;;40.88;;
40459;SDS011;26164;51.138;16.952;2023-03-01T02:59:21;95.68;;;39.03;;
40459;SDS011;26164;51.138;16.952;2023-03-01T03:01:50;103.10;;;41.92;;
40459;SDS011;26164;51.138;16.952;2023-03-01T03:04:16;106.35;;;42.20;;
40459;SDS011;26164;51.138;16.952;2023-03-01T03:06:48;103.72;;;42.70;;
40459;SDS011;26164;51.138;16.952;2023-03-01T03:09:16;112.38;;;44.55;;
40459;SDS011;26164;51.138;16.952;2023-03-01T03:11:44;107.78;;;43.90;;
40459;SDS011;26164;51.138;16.952;2023-03-01T03:14:11;103.35;;;43.47;;
40459;SDS011;26164;51.138;16.952;2023-03-01T03:16:50;105.78;;;44.70;;
40459;SDS011;26164;51.138;16.952;2023-03-01T03:19:17;101.63;;;41.97;;
40459;SDS011;26164;51.138;16.952;2023-03-01T03:21:44;107.00;;;42.25;;
40459;SDS011;26164;51.138;16.952;2023-03-01T03:24:10;104.57;;;43.28;;
40459;SDS011;26164;51.138;16.952;2023-03-01T03:26:36;106.68;;;42.80;;
40459;SDS011;26164;51.138;16.952;2023-03-01T03:29:02;98.45;;;42.00;;
40459;SDS011;26164;51.138;16.952;2023-03-01T03:31:28;105.32;;;44.85;;
40459;SDS011;26164;51.138;16.952;2023-03-01T03:33:55;112.75;;;44.85;;
40459;SDS011;26164;51.138;16.952;2023-03-01T03:36:22;111.03;;;44.05;;
40459;SDS011;26164;51.138;16.952;2023-03-01T03:38:50;113.18;;;47.67;;
40459;SDS011;26164;51.138;16.952;2023-03-01T03:41:16;111.50;;;47.10;;
40459;SDS011;26164;51.138;16.952;2023-03-01T03:43:44;129.88;;;51.72;;
40459;SDS011;26164;51.138;16.952;2023-03-01T03:46:11;140.18;;;53.05;;
40459;SDS011;26164;51.138;16.952;2023-03-01T03:48:40;137.48;;;52.92;;
40459;SDS011;26164;51.138;16.952;2023-03-01T03:51:10;140.23;;;53.55;;
40459;SDS011;26164;51.138;16.952;2023-03-01T03:53:37;123.72;;;49.10;;
40459;SDS011;26164;51.138;16.952;2023-03-01T03:56:03;147.00;;;57.50;;
40459;SDS011;26164;51.138;16.952;2023-03-01T03:58:32;146.13;;;56.97;;
40459;SDS011;26164;51.138;16.952;2023-03-01T04:00:58;138.50;;;52.30;;
40459;SDS011;26164;51.138;16.952;2023-03-01T04:03:28;122.90;;;50.55;;
40459;SDS011;26164;51.138;16.952;2023-03-01T04:05:56;127.25;;;48.47;;
40459;SDS011;26164;51.138;16.952;2023-03-01T04:08:24;118.43;;;49.88;;
40459;SDS011;26164;51.138;16.952;2023-03-01T04:10:51;129.32;;;51.47;;
40459;SDS011;26164;51.138;16.952;2023-03-01T04:13:19;127.45;;;49.10;;
40459;SDS011;26164;51.138;16.952;2023-03-01T04:15:53;126.22;;;48.00;;
40459;SDS011;26164;51.138;16.952;2023-03-01T04:18:21;117.97;;;48.10;;
40459;SDS011;26164;51.138;16.952;2023-03-01T04:20:48;113.85;;;46.15;;
40459;SDS011;26164;51.138;16.952;2023-03-01T04:23:18;117.55;;;47.00;;
40459;SDS011;26164;51.138;16.952;2023-03-01T04:25:47;129.00;;;51.47;;
40459;SDS011;26164;51.138;16.952;2023-03-01T04:30:49;127.22;;;51.35;;
40459;SDS011;26164;51.138;16.952;2023-03-01T04:33:15;148.73;;;54.35;;
40459;SDS011;26164;51.138;16.952;2023-03-01T04:35:41;135.38;;;53.90;;
40459;SDS011;26164;51.138;16.952;2023-03-01T04:38:07;139.07;;;55.05;;
40459;SDS011;26164;51.138;16.952;2023-03-01T04:40:34;138.90;;;54.97;;
40459;SDS011;26164;51.138;16.952;2023-03-01T04:43:00;141.73;;;58.22;;
40459;SDS011;26164;51.138;16.952;2023-03-01T04:45:27;139.15;;;56.95;;
40459;SDS011;26164;51.138;16.952;2023-03-01T04:47:54;140.48;;;58.03;;
40459;SDS011;26164;51.138;16.952;2023-03-01T04:50:20;136.95;;;54.88;;
40459;SDS011;26164;51.138;16.952;2023-03-01T04:52:47;140.25;;;55.53;;
40459;SDS011;26164;51.138;16.952;2023-03-01T04:55:15;142.45;;;58.60;;
40459;SDS011;26164;51.138;16.952;2023-03-01T04:57:41;135.07;;;52.95;;
40459;SDS011;26164;51.138;16.952;2023-03-01T05:00:09;129.63;;;52.53;;
40459;SDS011;26164;51.138;16.952;2023-03-01T05:02:51;127.53;;;50.13;;
40459;SDS011;26164;51.138;16.952;2023-03-01T05:05:19;122.80;;;49.28;;
40459;SDS011;26164;51.138;16.952;2023-03-01T05:07:47;147.05;;;55.90;;
40459;SDS011;26164;51.138;16.952;2023-03-01T05:10:13;153.05;;;58.40;;
40459;SDS011;26164;51.138;16.952;2023-03-01T05:12:39;154.10;;;60.53;;
40459;SDS011;26164;51.138;16.952;2023-03-01T05:15:12;151.90;;;58.50;;
40459;SDS011;26164;51.138;16.952;2023-03-01T05:17:38;155.55;;;55.33;;
40459;SDS011;26164;51.138;16.952;2023-03-01T05:20:04;125.55;;;48.33;;
40459;SDS011;26164;51.138;16.952;2023-03-01T05:22:34;150.25;;;55.95;;
40459;SDS011;26164;51.138;16.952;2023-03-01T05:25:01;132.68;;;52.83;;
40459;SDS011;26164;51.138;16.952;2023-03-01T05:27:28;186.00;;;64.85;;
40459;SDS011;26164;51.138;16.952;2023-03-01T05:29:55;253.27;;;79.90;;
40459;SDS011;26164;51.138;16.952;2023-03-01T05:32:21;196.05;;;69.45;;
40459;SDS011;26164;51.138;16.952;2023-03-01T05:34:47;219.05;;;74.78;;
40459;SDS011;26164;51.138;16.952;2023-03-01T05:37:13;305.48;;;93.90;;
40459;SDS011;26164;51.138;16.952;2023-03-01T05:39:39;250.88;;;82.50;;
40459;SDS011;26164;51.138;16.952;2023-03-01T05:42:09;203.23;;;72.32;;
40459;SDS011;26164;51.138;16.952;2023-03-01T05:44:38;192.43;;;67.38;;
40459;SDS011;26164;51.138;16.952;2023-03-01T05:47:04;182.75;;;63.42;;
40459;SDS011;26164;51.138;16.952;2023-03-01T05:49:29;188.43;;;66.75;;
40459;SDS011;26164;51.138;16.952;2023-03-01T05:51:57;168.63;;;59.25;;
40459;SDS011;26164;51.138;16.952;2023-03-01T05:54:22;164.15;;;56.95;;
40459;SDS011;26164;51.138;16.952;2023-03-01T05:56:48;162.68;;;60.47;;
40459;SDS011;26164;51.138;16.952;2023-03-01T05:59:14;138.50;;;53.10;;
40459;SDS011;26164;51.138;16.952;2023-03-01T06:01:41;157.75;;;59.13;;
40459;SDS011;26164;51.138;16.952;2023-03-01T06:04:07;154.35;;;58.92;;
40459;SDS011;26164;51.138;16.952;2023-03-01T06:06:33;133.32;;;52.08;;
40459;SDS011;26164;51.138;16.952;2023-03-01T06:09:03;146.00;;;56.47;;
40459;SDS011;26164;51.138;16.952;2023-03-01T06:11:30;152.85;;;57.60;;
40459;SDS011;26164;51.138;16.952;2023-03-01T06:13:55;139.23;;;52.83;;
40459;SDS011;26164;51.138;16.952;2023-03-01T06:16:21;126.88;;;49.22;;
40459;SDS011;26164;51.138;16.952;2023-03-01T06:18:50;116.03;;;45.22;;
40459;SDS011;26164;51.138;16.952;2023-03-01T06:21:16;102.75;;;43.55;;
40459;SDS011;26164;51.138;16.952;2023-03-01T06:23:43;130.10;;;52.80;;
40459;SDS011;26164;51.138;16.952;2023-03-01T06:26:09;118.22;;;45.50;;
40459;SDS011;26164;51.138;16.952;2023-03-01T06:28:37;136.98;;;50.08;;
40459;SDS011;26164;51.138;16.952;2023-03-01T06:31:06;117.85;;;47.28;;
40459;SDS011;26164;51.138;16.952;2023-03-01T06:33:35;127.03;;;52.65;;
40459;SDS011;26164;51.138;16.952;2023-03-01T06:36:01;129.00;;;49.20;;
40459;SDS011;26164;51.138;16.952;2023-03-01T06:38:27;127.70;;;48.95;;
40459;SDS011;26164;51.138;16.952;2023-03-01T06:40:54;131.32;;;51.03;;
40459;SDS011;26164;51.138;16.952;2023-03-01T06:43:22;133.05;;;50.40;;
40459;SDS011;26164;51.138;16.952;2023-03-01T06:45:48;121.05;;;48.83;;
40459;SDS011;26164;51.138;16.952;2023-03-01T06:48:14;139.00;;;52.70;;
40459;SDS011;26164;51.138;16.952;2023-03-01T06:50:40;146.65;;;54.90;;
40459;SDS011;26164;51.138;16.952;2023-03-01T06:53:06;135.55;;;55.38;;
40459;SDS011;26164;51.138;16.952;2023-03-01T06:55:32;143.15;;;53.53;;
40459;SDS011;26164;51.138;16.952;2023-03-01T06:57:58;130.23;;;52.70;;
40459;SDS011;26164;51.138;16.952;2023-03-01T07:00:25;138.38;;;54.17;;
40459;SDS011;26164;51.138;16.952;2023-03-01T07:02:52;136.05;;;54.42;;
40459;SDS011;26164;51.138;16.952;2023-03-01T07:05:18;133.27;;;53.83;;
40459;SDS011;26164;51.138;16.952;2023-03-01T07:07:44;133.60;;;52.65;;
40459;SDS011;26164;51.138;16.952;2023-03-01T07:10:11;134.70;;;53.00;;
40459;SDS011;26164;51.138;16.952;2023-03-01T07:12:37;139.90;;;53.50;;
40459;SDS011;26164;51.138;16.952;2023-03-01T07:15:08;135.32;;;52.47;;
40459;SDS011;26164;51.138;16.952;2023-03-01T07:17:42;143.18;;;54.83;;
40459;SDS011;26164;51.138;16.952;2023-03-01T07:20:10;138.98;;;54.58;;
40459;SDS011;26164;51.138;16.952;2023-03-01T07:22:36;131.77;;;54.53;;
40459;SDS011;26164;51.138;16.952;2023-03-01T07:25:05;141.30;;;55.00;;
40459;SDS011;26164;51.138;16.952;2023-03-01T07:27:31;137.52;;;55.28;;
40459;SDS011;26164;51.138;16.952;2023-03-01T07:30:00;133.05;;;54.63;;
40459;SDS011;26164;51.138;16.952;2023-03-01T07:32:27;141.18;;;57.45;;
40459;SDS011;26164;51.138;16.952;2023-03-01T07:34:53;139.45;;;57.10;;
40459;SDS011;26164;51.138;16.952;2023-03-01T07:37:20;138.18;;;57.15;;
40459;SDS011;26164;51.138;16.952;2023-03-01T07:39:47;136.27;;;58.55;;
40459;SDS011;26164;51.138;16.952;2023-03-01T07:42:13;138.20;;;58.95;;
40459;SDS011;26164;51.138;16.952;2023-03-01T07:44:39;153.27;;;62.00;;
40459;SDS011;26164;51.138;16.952;2023-03-01T07:47:05;144.77;;;58.28;;
40459;SDS011;26164;51.138;16.952;2023-03-01T07:49:31;137.55;;;59.08;;
40459;SDS011;26164;51.138;16.952;2023-03-01T07:51:57;130.55;;;53.80;;
40459;SDS011;26164;51.138;16.952;2023-03-01T07:54:23;120.43;;;54.10;;
40459;SDS011;26164;51.138;16.952;2023-03-01T07:56:50;129.57;;;52.67;;
40459;SDS011;26164;51.138;16.952;2023-03-01T07:59:15;114.35;;;48.97;;
40459;SDS011;26164;51.138;16.952;2023-03-01T08:01:42;91.97;;;42.15;;
40459;SDS011;26164;51.138;16.952;2023-03-01T08:04:15;107.97;;;45.28;;
40459;SDS011;26164;51.138;16.952;2023-03-01T08:09:30;108.10;;;44.40;;
40459;SDS011;26164;51.138;16.952;2023-03-01T08:11:57;102.25;;;44.58;;
40459;SDS011;26164;51.138;16.952;2023-03-01T08:14:26;92.18;;;41.90;;
40459;SDS011;26164;51.138;16.952;2023-03-01T08:16:52;93.05;;;41.58;;
40459;SDS011;26164;51.138;16.952;2023-03-01T08:19:18;98.25;;;42.72;;
40459;SDS011;26164;51.138;16.952;2023-03-01T08:21:43;88.05;;;41.22;;
40459;SDS011;26164;51.138;16.952;2023-03-01T08:24:09;89.63;;;40.08;;
40459;SDS011;26164;51.138;16.952;2023-03-01T08:26:35;83.15;;;38.03;;
40459;SDS011;26164;51.138;16.952;2023-03-01T08:29:02;83.55;;;37.40;;
40459;SDS011;26164;51.138;16.952;2023-03-01T08:31:29;81.22;;;37.70;;
40459;SDS011;26164;51.138;16.952;2023-03-01T08:34:07;76.50;;;36.28;;
40459;SDS011;26164;51.138;16.952;2023-03-01T08:36:36;74.78;;;34.17;;
40459;SDS011;26164;51.138;16.952;2023-03-01T08:39:05;64.88;;;32.10;;
40459;SDS011;26164;51.138;16.952;2023-03-01T08:41:34;73.00;;;33.17;;
40459;SDS011;26164;51.138;16.952;2023-03-01T08:44:01;77.05;;;34.17;;
40459;SDS011;26164;51.138;16.952;2023-03-01T08:46:32;74.85;;;33.80;;
40459;SDS011;26164;51.138;16.952;2023-03-01T08:49:05;71.32;;;32.85;;
40459;SDS011;26164;51.138;16.952;2023-03-01T08:51:33;77.80;;;33.42;;
40459;SDS011;26164;51.138;16.952;2023-03-01T08:54:06;72.30;;;34.22;;
40459;SDS011;26164;51.138;16.952;2023-03-01T08:56:35;79.57;;;36.72;;
40459;SDS011;26164;51.138;16.952;2023-03-01T08:59:04;85.07;;;37.47;;
40459;SDS011;26164;51.138;16.952;2023-03-01T09:01:30;83.07;;;35.90;;
40459;SDS011;26164;51.138;16.952;2023-03-01T09:03:56;69.00;;;33.50;;
40459;SDS011;26164;51.138;16.952;2023-03-01T09:06:22;78.00;;;34.80;;
40459;SDS011;26164;51.138;16.952;2023-03-01T09:08:49;81.15;;;35.47;;
40459;SDS011;26164;51.138;16.952;2023-03-01T09:11:16;77.90;;;35.63;;
40459;SDS011;26164;51.138;16.952;2023-03-01T09:13:47;70.45;;;36.10;;
40459;SDS011;26164;51.138;16.952;2023-03-01T09:16:14;75.60;;;35.42;;
40459;SDS011;26164;51.138;16.952;2023-03-01T09:18:43;71.78;;;34.97;;
40459;SDS011;26164;51.138;16.952;2023-03-01T09:23:43;70.00;;;31.73;;
40459;SDS011;26164;51.138;16.952;2023-03-01T09:26:12;69.95;;;32.88;;
40459;SDS011;26164;51.138;16.952;2023-03-01T09:28:42;68.38;;;32.22;;
40459;SDS011;26164;51.138;16.952;2023-03-01T09:31:10;66.38;;;31.75;;
40459;SDS011;26164;51.138;16.952;2023-03-01T09:33:39;68.15;;;33.33;;
40459;SDS011;26164;51.138;16.952;2023-03-01T09:36:06;72.55;;;32.22;;
40459;SDS011;26164;51.138;16.952;2023-03-01T09:38:35;61.17;;;32.35;;
40459;SDS011;26164;51.138;16.952;2023-03-01T09:41:01;65.28;;;32.30;;
40459;SDS011;26164;51.138;16.952;2023-03-01T09:43:32;65.10;;;32.50;;
40459;SDS011;26164;51.138;16.952;2023-03-01T09:46:09;70.00;;;32.15;;
40459;SDS011;26164;51.138;16.952;2023-03-01T09:51:27;68.03;;;33.58;;
40459;SDS011;26164;51.138;16.952;2023-03-01T09:53:57;62.00;;;30.63;;
40459;SDS011;26164;51.138;16.952;2023-03-01T10:09:46;70.47;;;31.90;;
40459;SDS011;26164;51.138;16.952;2023-03-01T10:12:20;70.68;;;32.15;;
40459;SDS011;26164;51.138;16.952;2023-03-01T10:14:54;65.75;;;30.75;;
40459;SDS011;26164;51.138;16.952;2023-03-01T10:17:27;63.55;;;31.67;;
40459;SDS011;26164;51.138;16.952;2023-03-01T10:19:54;62.08;;;30.75;;
40459;SDS011;26164;51.138;16.952;2023-03-01T10:22:21;67.03;;;31.08;;
40459;SDS011;26164;51.138;16.952;2023-03-01T10:24:54;72.38;;;32.40;;
40459;SDS011;26164;51.138;16.952;2023-03-01T10:27:24;64.68;;;31.77;;
40459;SDS011;26164;51.138;16.952;2023-03-01T10:30:11;58.90;;;29.08;;
40459;SDS011;26164;51.138;16.952;2023-03-01T10:32:38;50.88;;;26.58;;
40459;SDS011;26164;51.138;16.952;2023-03-01T10:35:19;48.83;;;25.88;;
40459;SDS011;26164;51.138;16.952;2023-03-01T10:40:51;45.22;;;23.23;;
40459;SDS011;26164;51.138;16.952;2023-03-01T10:43:29;53.22;;;25.05;;
40459;SDS011;26164;51.138;16.952;2023-03-01T10:49:13;54.25;;;25.17;;
40459;SDS011;26164;51.138;16.952;2023-03-01T10:51:45;52.78;;;24.10;;
40459;SDS011;26164;51.138;16.952;2023-03-01T10:54:15;53.40;;;24.60;;
40459;SDS011;26164;51.138;16.952;2023-03-01T10:56:51;46.10;;;23.85;;
40459;SDS011;26164;51.138;16.952;2023-03-01T10:59:33;47.35;;;23.38;;
40459;SDS011;26164;51.138;16.952;2023-03-01T11:04:27;44.70;;;21.83;;
40459;SDS011;26164;51.138;16.952;2023-03-01T11:06:58;48.25;;;21.73;;
40459;SDS011;26164;51.138;16.952;2023-03-01T11:09:26;48.60;;;21.42;;
40459;SDS011;26164;51.138;16.952;2023-03-01T11:12:05;38.80;;;20.10;;
40459;SDS011;26164;51.138;16.952;2023-03-01T11:14:53;37.75;;;18.45;;
40459;SDS011;26164;51.138;16.952;2023-03-01T11:17:24;37.25;;;19.70;;
40459;SDS011;26164;51.138;16.952;2023-03-01T11:20:15;38.97;;;19.58;;
40459;SDS011;26164;51.138;16.952;2023-03-01T11:22:56;41.85;;;18.10;;
40459;SDS011;26164;51.138;16.952;2023-03-01T11:25:24;33.47;;;18.25;;
40459;SDS011;26164;51.138;16.952;2023-03-01T11:27:54;34.63;;;17.23;;
40459;SDS011;26164;51.138;16.952;2023-03-01T11:30:43;39.60;;;19.17;;
40459;SDS011;26164;51.138;16.952;2023-03-01T11:36:06;32.70;;;17.05;;
40459;SDS011;26164;51.138;16.952;2023-03-01T11:38:53;32.85;;;16.58;;
40459;SDS011;26164;51.138;16.952;2023-03-01T11:41:21;37.40;;;18.17;;
40459;SDS011;26164;51.138;16.952;2023-03-01T12:00:50;32.50;;;16.35;;
40459;SDS011;26164;51.138;16.952;2023-03-01T12:03:29;32.00;;;16.90;;
40459;SDS011;26164;51.138;16.952;2023-03-01T12:22:55;23.80;;;13.55;;
40459;SDS011;26164;51.138;16.952;2023-03-01T12:25:41;30.05;;;14.35;;
40459;SDS011;26164;51.138;16.952;2023-03-01T12:28:19;27.52;;;13.35;;
40459;SDS011;26164;51.138;16.952;2023-03-01T12:45:47;18.92;;;10.05;;
40459;SDS011;26164;51.138;16.952;2023-03-01T12:48:24;17.75;;;9.50;;
40459;SDS011;26164;51.138;16.952;2023-03-01T12:50:59;16.55;;;8.82;;
40459;SDS011;26164;51.138;16.952;2023-03-01T12:53:32;18.17;;;9.30;;
40459;SDS011;26164;51.138;16.952;2023-03-01T12:56:05;14.88;;;8.95;;
40459;SDS011;26164;51.138;16.952;2023-03-01T12:58:38;18.52;;;9.23;;
40459;SDS011;26164;51.138;16.952;2023-03-01T13:09:25;15.48;;;8.65;;
40459;SDS011;26164;51.138;16.952;2023-03-01T13:11:56;17.83;;;9.18;;
40459;SDS011;26164;51.138;16.952;2023-03-01T13:16:49;13.35;;;7.68;;
40459;SDS011;26164;51.138;16.952;2023-03-01T13:19:17;17.67;;;8.13;;
40459;SDS011;26164;51.138;16.952;2023-03-01T13:21:45;18.63;;;9.25;;
40459;SDS011;26164;51.138;16.952;2023-03-01T13:24:26;13.98;;;7.40;;
40459;SDS011;26164;51.138;16.952;2023-03-01T13:29:43;16.67;;;9.25;;
40459;SDS011;26164;51.138;16.952;2023-03-01T13:32:28;16.65;;;8.43;;
40459;SDS011;26164;51.138;16.952;2023-03-01T13:37:28;13.68;;;7.75;;
40459;SDS011;26164;51.138;16.952;2023-03-01T13:39:57;15.10;;;7.47;;
40459;SDS011;26164;51.138;16.952;2023-03-01T13:44:59;15.30;;;7.97;;
40459;SDS011;26164;51.138;16.952;2023-03-01T13:47:26;13.43;;;7.20;;
40459;SDS011;26164;51.138;16.952;2023-03-01T13:49:57;14.40;;;8.15;;
40459;SDS011;26164;51.138;16.952;2023-03-01T13:54:50;15.63;;;8.38;;
40459;SDS011;26164;51.138;16.952;2023-03-01T13:57:19;16.50;;;9.15;;
40459;SDS011;26164;51.138;16.952;2023-03-01T13:59:50;16.45;;;9.45;;
40459;SDS011;26164;51.138;16.952;2023-03-01T14:02:16;16.70;;;9.88;;
40459;SDS011;26164;51.138;16.952;2023-03-01T14:04:41;16.25;;;9.60;;
40459;SDS011;26164;51.138;16.952;2023-03-01T14:07:21;19.20;;;9.77;;
40459;SDS011;26164;51.138;16.952;2023-03-01T14:09:56;17.52;;;9.70;;
40459;SDS011;26164;51.138;16.952;2023-03-01T14:12:36;17.33;;;9.52;;
40459;SDS011;26164;51.138;16.952;2023-03-01T14:17:57;15.82;;;9.68;;
40459;SDS011;26164;51.138;16.952;2023-03-01T14:20:31;18.88;;;10.20;;
40459;SDS011;26164;51.138;16.952;2023-03-01T14:23:01;18.90;;;9.98;;
40459;SDS011;26164;51.138;16.952;2023-03-01T14:25:34;17.85;;;10.07;;
40459;SDS011;26164;51.138;16.952;2023-03-01T14:28:04;18.90;;;10.93;;
40459;SDS011;26164;51.138;16.952;2023-03-01T14:30:53;20.27;;;10.07;;
40459;SDS011;26164;51.138;16.952;2023-03-01T14:33:22;19.50;;;10.25;;
40459;SDS011;26164;51.138;16.952;2023-03-01T14:38:37;19.10;;;10.05;;
40459;SDS011;26164;51.138;16.952;2023-03-01T14:41:11;16.45;;;9.98;;
40459;SDS011;26164;51.138;16.952;2023-03-01T14:43:50;19.75;;;10.45;;
40459;SDS011;26164;51.138;16.952;2023-03-01T14:46:26;19.73;;;10.07;;
40459;SDS011;26164;51.138;16.952;2023-03-01T14:49:16;18.65;;;11.38;;
40459;SDS011;26164;51.138;16.952;2023-03-01T14:51:48;21.63;;;11.32;;
40459;SDS011;26164;51.138;16.952;2023-03-01T14:54:31;21.48;;;11.07;;
40459;SDS011;26164;51.138;16.952;2023-03-01T14:57:05;16.52;;;10.40;;
40459;SDS011;26164;51.138;16.952;2023-03-01T14:59:33;18.75;;;10.57;;
40459;SDS011;26164;51.138;16.952;2023-03-01T15:01:59;16.02;;;8.95;;
40459;SDS011;26164;51.138;16.952;2023-03-01T15:04:27;17.08;;;9.43;;
40459;SDS011;26164;51.138;16.952;2023-03-01T15:06:54;17.58;;;10.13;;
40459;SDS011;26164;51.138;16.952;2023-03-01T15:09:31;18.40;;;10.55;;
40459;SDS011;26164;51.138;16.952;2023-03-01T15:11:59;17.45;;;10.45;;
40459;SDS011;26164;51.138;16.952;2023-03-01T15:20:15;21.15;;;12.25;;
40459;SDS011;26164;51.138;16.952;2023-03-01T15:22:44;21.77;;;11.75;;
40459;SDS011;26164;51.138;16.952;2023-03-01T15:25:15;19.60;;;11.25;;
40459;SDS011;26164;51.138;16.952;2023-03-01T15:27:45;20.13;;;11.80;;
40459;SDS011;26164;51.138;16.952;2023-03-01T15:30:17;23.00;;;12.40;;
40459;SDS011;26164;51.138;16.952;2023-03-01T15:35:59;23.23;;;11.57;;
40459;SDS011;26164;51.138;16.952;2023-03-01T15:38:33;20.83;;;11.70;;
40459;SDS011;26164;51.138;16.952;2023-03-01T15:41:29;20.77;;;11.80;;
40459;SDS011;26164;51.138;16.952;2023-03-01T15:43:58;21.05;;;11.63;;
40459;SDS011;26164;51.138;16.952;2023-03-01T15:46:34;18.95;;;10.80;;
40459;SDS011;26164;51.138;16.952;2023-03-01T15:49:03;20.02;;;11.20;;
40459;SDS011;26164;51.138;16.952;2023-03-01T15:54:41;21.50;;;12.35;;
40459;SDS011;26164;51.138;16.952;2023-03-01T15:57:12;20.90;;;11.20;;
40459;SDS011;26164;51.138;16.952;2023-03-01T15:59:40;22.30;;;12.57;;
40459;SDS011;26164;51.138;16.952;2023-03-01T16:02:13;26.05;;;14.63;;
40459;SDS011;26164;51.138;16.952;2023-03-01T16:04:40;29.92;;;15.73;;
40459;SDS011;26164;51.138;16.952;2023-03-01T16:07:10;27.33;;;14.85;;
40459;SDS011;26164;51.138;16.952;2023-03-01T16:09:38;30.67;;;16.10;;
40459;SDS011;26164;51.138;16.952;2023-03-01T16:12:14;28.42;;;14.75;;
40459;SDS011;26164;51.138;16.952;2023-03-01T16:14:46;35.63;;;15.80;;
40459;SDS011;26164;51.138;16.952;2023-03-01T16:17:14;31.60;;;16.05;;
40459;SDS011;26164;51.138;16.952;2023-03-01T16:19:41;28.05;;;15.23;;
40459;SDS011;26164;51.138;16.952;2023-03-01T16:22:10;29.55;;;15.98;;
40459;SDS011;26164;51.138;16.952;2023-03-01T16:24:37;32.20;;;17.33;;
40459;SDS011;26164;51.138;16.952;2023-03-01T16:27:03;30.45;;;15.88;;
40459;SDS011;26164;51.138;16.952;2023-03-01T16:29:29;31.73;;;16.33;;
40459;SDS011;26164;51.138;16.952;2023-03-01T16:31:55;29.17;;;15.60;;
40459;SDS011;26164;51.138;16.952;2023-03-01T16:34:24;29.15;;;16.30;;